Nederlandse vliegveldverwachtingen (TAF)

Luchtvaartmeteorologische informatie voor operationeel gebruik en vluchtvoorbereiding is beschikbaar op www.luchtvaartmeteo.nl.

ZCZC
FC061700 EHGR     GILZE-RIJEN/GILZE-RIJEN   NLD   14 m.
TAF EHGR 061700Z NIL=

ZCZC
FC061700 EHKD     DE KOOY/DE KOOY   NLD   1 m.
TAF EHKD 061609Z 0617/0705 30013KT 9999 SCT022
    BECMG 0619/0621 28009KT
    BECMG 0701/0703 24007KT FEW030 BKN050 BKN210
    PROB30 TEMPO 0703/0705 6000 -SHRA FEW020 SCT028CB BKN045=

ZCZC
FC061700 EHLW     LEEUWARDEN/LEEUWARDEN   NLD   1 m.
TAF EHLW 061609Z 0617/0705 29014KT 9999 SCT024
    BECMG 0623/0702 27008KT FEW022 SCT040
    BECMG 0702/0704 22005KT=

ZCZC
FC061700 EHVK     VOLKEL/VOLKEL   NLD   21 m.
TAF EHVK 061608Z 0617/0705 29011G23KT 9999 SCT038 SCT060
    BECMG 0618/0620 28005KT SCT040
    BECMG 0623/0702 VRB03KT
    PROB30 0702/0705 4000 BR MIFG=

ZCZC
FC061700 EHWO     WOENSDRECHT/WOENSDRECHT   NLD   19 m.
TAF EHWO 061700Z NIL=

ZCZC
FT061700 EHAM     AMSTERDAM/SCHIPHOL   NLD   -3 m.
TAF EHAM 061702Z 0618/0724 31012KT 9999 SCT025
    BECMG 0620/0623 24005KT
    PROB30 TEMPO 0707/0710 -SHRA SCT025TCU BKN030
    BECMG 0708/0711 28016KT
    BECMG 0716/0719 22004KT
    PROB40 TEMPO 0721/0724 7000 RA -SHRA BKN018 FEW020TCU=

ZCZC
FT061700 EHBK     MAASTRICHT/MAASTRICHT-AACHEN   NLD   114 m.
TAF EHBK 061701Z 0618/0724 30010KT 9999 SCT040
    BECMG 0619/0622 24004KT
    BECMG 0709/0712 27010KT
    BECMG 0717/0720 VRB03KT=

ZCZC
FT061700 EHGG     GRONINGEN/EELDE   NLD   5 m.
TAF EHGG 061701Z 0618/0724 30012KT 9999 SCT040
    BECMG 0620/0623 24006KT
    BECMG 0708/0711 27012KT
    PROB40 TEMPO 0709/0715 29015G25KT 7000 SHRA SCT025CB
    BKN030
    BECMG 0718/0721 24006KT=

ZCZC
FT061700 EHLE     LELYSTAD/LELYSTAD   NLD   -3 m.
TAF EHLE 061702Z 0618/0724 30012KT 9999 SCT025
    BECMG 0620/0623 26005KT
    PROB30 0700/0705 4000 BR
    BECMG 0708/0711 28016KT
    PROB40 TEMPO 0708/0711 6000 SHRA SCT025TCU BKN030
    BECMG 0716/0719 25004KT
    PROB40 TEMPO 0722/0724 7000 RA -SHRA BKN018 FEW020TCU=

ZCZC
FT061700 EHRD     ROTTERDAM/THE HAGUE AIRPORT   NLD   -5 m.
TAF EHRD 061702Z 0618/0724 31012KT 9999 SCT025
    BECMG 0620/0623 24005KT
    PROB30 TEMPO 0707/0710 -SHRA SCT025TCU BKN030
    BECMG 0708/0711 28016KT
    BECMG 0716/0719 22004KT
    PROB40 TEMPO 0721/0724 7000 RA -SHRA BKN018 FEW020TCU=

ZCZC
FT061700 EHEH     EINDHOVEN/EINDHOVEN   NLD   22 m.
TAF EHEH 061750Z 0618/0724 29010KT 9999 FEW038 BKN050
    BECMG 0618/0620 27005KT SCT050
    BECMG 0623/0702 VRB03KT
    PROB40 0702/0706 4000 BR MIFG
    BECMG 0708/0711 27012G24KT
    PROB30 TEMPO 0708/0712 28013G26KT 6000 -SHRA SCT030CB
    BKN060
    BECMG 0718/0720 VRB03KT SCT035 BKN050 BKN080=

06/07/2020 20.15 uur LT